sensor_id;sensor_type;location;lat;lon;timestamp;P1;durP1;ratioP1;P2;durP2;ratioP2
3726;SDS011;1879;45.876;12.300;2022-08-02T00:01:52;4.63;;;2.40;;
3726;SDS011;1879;45.876;12.300;2022-08-02T00:04:21;6.70;;;2.40;;
3726;SDS011;1879;45.876;12.300;2022-08-02T00:06:48;2.77;;;2.57;;
3726;SDS011;1879;45.876;12.300;2022-08-02T00:09:15;2.70;;;2.50;;
3726;SDS011;1879;45.876;12.300;2022-08-02T00:11:42;2.70;;;2.17;;
3726;SDS011;1879;45.876;12.300;2022-08-02T00:14:09;2.50;;;2.30;;
3726;SDS011;1879;45.876;12.300;2022-08-02T00:16:38;2.90;;;2.40;;
3726;SDS011;1879;45.876;12.300;2022-08-02T00:19:05;2.83;;;2.20;;
3726;SDS011;1879;45.876;12.300;2022-08-02T00:21:33;2.63;;;2.00;;
3726;SDS011;1879;45.876;12.300;2022-08-02T00:24:00;4.07;;;2.43;;
3726;SDS011;1879;45.876;12.300;2022-08-02T00:26:27;3.53;;;2.80;;
3726;SDS011;1879;45.876;12.300;2022-08-02T00:28:54;3.00;;;2.30;;
3726;SDS011;1879;45.876;12.300;2022-08-02T00:31:21;2.63;;;2.00;;
3726;SDS011;1879;45.876;12.300;2022-08-02T00:33:48;2.87;;;2.20;;
3726;SDS011;1879;45.876;12.300;2022-08-02T00:36:15;2.90;;;2.50;;
3726;SDS011;1879;45.876;12.300;2022-08-02T00:38:44;3.77;;;3.00;;
3726;SDS011;1879;45.876;12.300;2022-08-02T00:41:12;2.53;;;2.33;;
3726;SDS011;1879;45.876;12.300;2022-08-02T00:43:41;2.90;;;2.70;;
3726;SDS011;1879;45.876;12.300;2022-08-02T00:46:08;2.80;;;2.37;;
3726;SDS011;1879;45.876;12.300;2022-08-02T00:48:35;2.67;;;2.47;;
3726;SDS011;1879;45.876;12.300;2022-08-02T00:51:02;2.07;;;1.90;;
3726;SDS011;1879;45.876;12.300;2022-08-02T00:53:30;2.50;;;2.30;;
3726;SDS011;1879;45.876;12.300;2022-08-02T00:55:59;4.20;;;2.30;;
3726;SDS011;1879;45.876;12.300;2022-08-02T00:58:26;2.20;;;2.00;;
3726;SDS011;1879;45.876;12.300;2022-08-02T01:00:53;4.37;;;1.80;;
3726;SDS011;1879;45.876;12.300;2022-08-02T01:03:21;3.03;;;2.13;;
3726;SDS011;1879;45.876;12.300;2022-08-02T01:05:48;3.27;;;2.40;;
3726;SDS011;1879;45.876;12.300;2022-08-02T01:08:16;4.63;;;1.70;;
3726;SDS011;1879;45.876;12.300;2022-08-02T01:10:42;1.40;;;1.30;;
3726;SDS011;1879;45.876;12.300;2022-08-02T01:13:11;2.53;;;1.50;;
3726;SDS011;1879;45.876;12.300;2022-08-02T01:15:39;1.90;;;1.57;;
3726;SDS011;1879;45.876;12.300;2022-08-02T01:18:14;2.23;;;1.70;;
3726;SDS011;1879;45.876;12.300;2022-08-02T01:26:46;2.33;;;1.70;;
3726;SDS011;1879;45.876;12.300;2022-08-02T01:29:18;1.50;;;1.23;;
3726;SDS011;1879;45.876;12.300;2022-08-02T01:31:52;1.93;;;1.37;;
3726;SDS011;1879;45.876;12.300;2022-08-02T01:34:26;1.70;;;1.50;;
3726;SDS011;1879;45.876;12.300;2022-08-02T01:37:00;2.57;;;1.30;;
3726;SDS011;1879;45.876;12.300;2022-08-02T01:39:32;1.80;;;1.50;;
3726;SDS011;1879;45.876;12.300;2022-08-02T01:42:01;1.90;;;1.30;;
3726;SDS011;1879;45.876;12.300;2022-08-02T01:44:32;3.20;;;1.67;;
3726;SDS011;1879;45.876;12.300;2022-08-02T01:47:02;2.30;;;1.10;;
3726;SDS011;1879;45.876;12.300;2022-08-02T01:49:32;1.30;;;1.10;;
3726;SDS011;1879;45.876;12.300;2022-08-02T01:52:01;1.20;;;1.10;;
3726;SDS011;1879;45.876;12.300;2022-08-02T01:54:47;1.70;;;1.00;;
3726;SDS011;1879;45.876;12.300;2022-08-02T01:57:17;2.17;;;1.23;;
3726;SDS011;1879;45.876;12.300;2022-08-02T01:59:49;4.20;;;1.00;;
3726;SDS011;1879;45.876;12.300;2022-08-02T02:02:18;5.03;;;1.60;;
3726;SDS011;1879;45.876;12.300;2022-08-02T02:04:47;6.90;;;2.40;;
3726;SDS011;1879;45.876;12.300;2022-08-02T02:07:15;5.50;;;1.93;;
3726;SDS011;1879;45.876;12.300;2022-08-02T02:09:43;3.93;;;1.30;;
3726;SDS011;1879;45.876;12.300;2022-08-02T02:12:12;2.50;;;1.20;;
3726;SDS011;1879;45.876;12.300;2022-08-02T02:14:40;1.63;;;1.30;;
3726;SDS011;1879;45.876;12.300;2022-08-02T02:17:10;4.00;;;1.30;;
3726;SDS011;1879;45.876;12.300;2022-08-02T02:19:38;2.10;;;1.20;;
3726;SDS011;1879;45.876;12.300;2022-08-02T02:22:07;3.30;;;1.33;;
3726;SDS011;1879;45.876;12.300;2022-08-02T02:24:34;5.17;;;2.20;;
3726;SDS011;1879;45.876;12.300;2022-08-02T02:27:01;2.03;;;1.27;;
3726;SDS011;1879;45.876;12.300;2022-08-02T02:29:33;1.77;;;1.57;;
3726;SDS011;1879;45.876;12.300;2022-08-02T02:32:02;2.40;;;1.50;;
3726;SDS011;1879;45.876;12.300;2022-08-02T02:34:33;1.90;;;1.23;;
3726;SDS011;1879;45.876;12.300;2022-08-02T02:37:04;1.80;;;1.20;;
3726;SDS011;1879;45.876;12.300;2022-08-02T02:39:34;5.30;;;1.93;;
3726;SDS011;1879;45.876;12.300;2022-08-02T02:42:06;3.63;;;1.60;;
3726;SDS011;1879;45.876;12.300;2022-08-02T02:44:38;3.93;;;1.40;;
3726;SDS011;1879;45.876;12.300;2022-08-02T02:47:06;3.47;;;2.20;;
3726;SDS011;1879;45.876;12.300;2022-08-02T02:49:37;3.97;;;1.80;;
3726;SDS011;1879;45.876;12.300;2022-08-02T02:52:05;1.97;;;1.47;;
3726;SDS011;1879;45.876;12.300;2022-08-02T02:54:33;2.53;;;1.73;;
3726;SDS011;1879;45.876;12.300;2022-08-02T02:57:04;2.37;;;1.30;;
3726;SDS011;1879;45.876;12.300;2022-08-02T02:59:31;4.30;;;1.33;;
3726;SDS011;1879;45.876;12.300;2022-08-02T03:02:00;3.70;;;1.50;;
3726;SDS011;1879;45.876;12.300;2022-08-02T03:04:28;2.10;;;1.67;;
3726;SDS011;1879;45.876;12.300;2022-08-02T03:06:58;3.00;;;1.80;;
3726;SDS011;1879;45.876;12.300;2022-08-02T03:09:25;5.03;;;1.67;;
3726;SDS011;1879;45.876;12.300;2022-08-02T03:11:53;3.47;;;1.90;;
3726;SDS011;1879;45.876;12.300;2022-08-02T03:14:21;2.30;;;1.70;;
3726;SDS011;1879;45.876;12.300;2022-08-02T03:16:49;2.93;;;1.60;;
3726;SDS011;1879;45.876;12.300;2022-08-02T03:19:23;3.70;;;2.23;;
3726;SDS011;1879;45.876;12.300;2022-08-02T03:21:50;2.03;;;1.70;;
3726;SDS011;1879;45.876;12.300;2022-08-02T03:24:18;3.40;;;1.70;;
3726;SDS011;1879;45.876;12.300;2022-08-02T03:26:45;9.70;;;1.63;;
3726;SDS011;1879;45.876;12.300;2022-08-02T03:29:12;2.53;;;1.57;;
3726;SDS011;1879;45.876;12.300;2022-08-02T03:31:40;2.30;;;1.50;;
3726;SDS011;1879;45.876;12.300;2022-08-02T03:34:11;1.70;;;1.37;;
3726;SDS011;1879;45.876;12.300;2022-08-02T03:36:38;1.97;;;1.73;;
3726;SDS011;1879;45.876;12.300;2022-08-02T03:39:07;1.63;;;1.50;;
3726;SDS011;1879;45.876;12.300;2022-08-02T03:41:37;2.40;;;1.57;;
3726;SDS011;1879;45.876;12.300;2022-08-02T03:44:05;2.03;;;1.57;;
3726;SDS011;1879;45.876;12.300;2022-08-02T03:46:36;3.03;;;1.40;;
3726;SDS011;1879;45.876;12.300;2022-08-02T03:49:04;4.17;;;1.40;;
3726;SDS011;1879;45.876;12.300;2022-08-02T03:51:33;1.70;;;1.53;;
3726;SDS011;1879;45.876;12.300;2022-08-02T03:54:03;3.03;;;1.43;;
3726;SDS011;1879;45.876;12.300;2022-08-02T03:56:30;2.23;;;1.70;;
3726;SDS011;1879;45.876;12.300;2022-08-02T03:59:05;2.50;;;1.47;;
3726;SDS011;1879;45.876;12.300;2022-08-02T04:01:33;1.97;;;1.30;;
3726;SDS011;1879;45.876;12.300;2022-08-02T04:04:00;3.60;;;1.73;;
3726;SDS011;1879;45.876;12.300;2022-08-02T04:06:27;2.07;;;1.50;;
3726;SDS011;1879;45.876;12.300;2022-08-02T04:08:54;2.00;;;1.40;;
3726;SDS011;1879;45.876;12.300;2022-08-02T04:11:21;2.50;;;1.70;;
3726;SDS011;1879;45.876;12.300;2022-08-02T04:13:57;2.07;;;1.60;;
3726;SDS011;1879;45.876;12.300;2022-08-02T04:16:30;3.10;;;2.33;;
3726;SDS011;1879;45.876;12.300;2022-08-02T04:19:04;2.90;;;2.13;;
3726;SDS011;1879;45.876;12.300;2022-08-02T04:21:34;2.00;;;1.50;;
3726;SDS011;1879;45.876;12.300;2022-08-02T04:24:03;1.70;;;1.40;;
3726;SDS011;1879;45.876;12.300;2022-08-02T04:26:32;3.03;;;1.83;;
3726;SDS011;1879;45.876;12.300;2022-08-02T04:29:00;1.50;;;1.40;;
3726;SDS011;1879;45.876;12.300;2022-08-02T04:31:30;3.27;;;1.60;;
3726;SDS011;1879;45.876;12.300;2022-08-02T04:33:57;3.20;;;1.50;;
3726;SDS011;1879;45.876;12.300;2022-08-02T04:36:25;1.80;;;1.63;;
3726;SDS011;1879;45.876;12.300;2022-08-02T04:38:52;3.03;;;1.60;;
3726;SDS011;1879;45.876;12.300;2022-08-02T04:41:19;2.10;;;1.40;;
3726;SDS011;1879;45.876;12.300;2022-08-02T04:43:46;3.87;;;1.60;;
3726;SDS011;1879;45.876;12.300;2022-08-02T04:46:13;2.00;;;1.80;;
3726;SDS011;1879;45.876;12.300;2022-08-02T04:48:42;1.60;;;1.37;;
3726;SDS011;1879;45.876;12.300;2022-08-02T04:51:09;2.60;;;1.53;;
3726;SDS011;1879;45.876;12.300;2022-08-02T04:53:36;5.03;;;1.63;;
3726;SDS011;1879;45.876;12.300;2022-08-02T04:56:03;2.07;;;1.40;;
3726;SDS011;1879;45.876;12.300;2022-08-02T04:58:30;2.13;;;1.57;;
3726;SDS011;1879;45.876;12.300;2022-08-02T05:00:57;1.70;;;1.27;;
3726;SDS011;1879;45.876;12.300;2022-08-02T05:03:24;2.17;;;1.40;;
3726;SDS011;1879;45.876;12.300;2022-08-02T05:05:52;1.97;;;1.77;;
3726;SDS011;1879;45.876;12.300;2022-08-02T05:08:19;1.90;;;1.70;;
3726;SDS011;1879;45.876;12.300;2022-08-02T05:10:46;2.00;;;1.80;;
3726;SDS011;1879;45.876;12.300;2022-08-02T05:13:13;2.50;;;1.60;;
3726;SDS011;1879;45.876;12.300;2022-08-02T05:15:40;1.73;;;1.23;;
3726;SDS011;1879;45.876;12.300;2022-08-02T05:18:07;2.30;;;1.83;;
3726;SDS011;1879;45.876;12.300;2022-08-02T05:20:34;2.10;;;1.40;;
3726;SDS011;1879;45.876;12.300;2022-08-02T05:23:03;1.83;;;1.73;;
3726;SDS011;1879;45.876;12.300;2022-08-02T05:25:30;1.70;;;1.60;;
3726;SDS011;1879;45.876;12.300;2022-08-02T05:27:57;1.60;;;1.40;;
3726;SDS011;1879;45.876;12.300;2022-08-02T05:30:24;1.77;;;1.47;;
3726;SDS011;1879;45.876;12.300;2022-08-02T05:32:51;2.30;;;1.60;;
3726;SDS011;1879;45.876;12.300;2022-08-02T05:35:18;1.37;;;1.27;;
3726;SDS011;1879;45.876;12.300;2022-08-02T05:37:47;3.20;;;1.43;;
3726;SDS011;1879;45.876;12.300;2022-08-02T05:40:16;1.53;;;1.20;;
3726;SDS011;1879;45.876;12.300;2022-08-02T05:42:44;2.23;;;1.67;;
3726;SDS011;1879;45.876;12.300;2022-08-02T05:45:11;1.97;;;1.60;;
3726;SDS011;1879;45.876;12.300;2022-08-02T05:47:38;3.20;;;1.70;;
3726;SDS011;1879;45.876;12.300;2022-08-02T05:50:06;1.87;;;1.40;;
3726;SDS011;1879;45.876;12.300;2022-08-02T05:52:39;1.70;;;1.50;;
3726;SDS011;1879;45.876;12.300;2022-08-02T05:55:11;2.40;;;1.40;;
3726;SDS011;1879;45.876;12.300;2022-08-02T05:57:46;3.00;;;1.50;;
3726;SDS011;1879;45.876;12.300;2022-08-02T06:00:17;1.80;;;1.20;;
3726;SDS011;1879;45.876;12.300;2022-08-02T06:03:00;5.67;;;1.40;;
3726;SDS011;1879;45.876;12.300;2022-08-02T06:05:31;1.83;;;1.50;;
3726;SDS011;1879;45.876;12.300;2022-08-02T06:08:00;4.07;;;1.50;;
3726;SDS011;1879;45.876;12.300;2022-08-02T06:10:32;1.77;;;1.40;;
3726;SDS011;1879;45.876;12.300;2022-08-02T06:13:03;2.10;;;1.70;;
3726;SDS011;1879;45.876;12.300;2022-08-02T06:15:34;2.10;;;1.90;;
3726;SDS011;1879;45.876;12.300;2022-08-02T06:18:02;1.90;;;1.40;;
3726;SDS011;1879;45.876;12.300;2022-08-02T06:20:30;2.60;;;1.47;;
3726;SDS011;1879;45.876;12.300;2022-08-02T06:23:01;1.60;;;1.50;;
3726;SDS011;1879;45.876;12.300;2022-08-02T06:25:30;2.50;;;1.57;;
3726;SDS011;1879;45.876;12.300;2022-08-02T06:27:58;1.60;;;1.40;;
3726;SDS011;1879;45.876;12.300;2022-08-02T06:30:27;2.23;;;1.40;;
3726;SDS011;1879;45.876;12.300;2022-08-02T06:32:54;2.40;;;1.33;;
3726;SDS011;1879;45.876;12.300;2022-08-02T06:35:22;2.97;;;1.57;;
3726;SDS011;1879;45.876;12.300;2022-08-02T06:37:58;1.40;;;1.30;;
3726;SDS011;1879;45.876;12.300;2022-08-02T06:40:26;2.00;;;1.37;;
3726;SDS011;1879;45.876;12.300;2022-08-02T06:43:01;2.70;;;1.50;;
3726;SDS011;1879;45.876;12.300;2022-08-02T06:45:37;1.53;;;1.33;;
3726;SDS011;1879;45.876;12.300;2022-08-02T06:48:05;3.00;;;1.97;;
3726;SDS011;1879;45.876;12.300;2022-08-02T06:50:32;1.90;;;1.50;;
3726;SDS011;1879;45.876;12.300;2022-08-02T06:53:02;3.03;;;1.83;;
3726;SDS011;1879;45.876;12.300;2022-08-02T06:55:31;1.80;;;1.70;;
3726;SDS011;1879;45.876;12.300;2022-08-02T06:57:58;1.90;;;1.17;;
3726;SDS011;1879;45.876;12.300;2022-08-02T07:00:25;1.80;;;1.40;;
3726;SDS011;1879;45.876;12.300;2022-08-02T07:02:54;1.63;;;1.52;;
3726;SDS011;1879;45.876;12.300;2022-08-02T07:05:21;1.50;;;1.40;;
3726;SDS011;1879;45.876;12.300;2022-08-02T07:07:49;1.87;;;1.50;;
3726;SDS011;1879;45.876;12.300;2022-08-02T07:10:18;4.97;;;1.53;;
3726;SDS011;1879;45.876;12.300;2022-08-02T07:12:45;1.70;;;1.20;;
3726;SDS011;1879;45.876;12.300;2022-08-02T07:15:12;1.47;;;1.20;;
3726;SDS011;1879;45.876;12.300;2022-08-02T07:17:40;2.30;;;1.30;;
3726;SDS011;1879;45.876;12.300;2022-08-02T07:20:08;2.80;;;1.53;;
3726;SDS011;1879;45.876;12.300;2022-08-02T07:22:37;3.00;;;1.60;;
3726;SDS011;1879;45.876;12.300;2022-08-02T07:25:04;1.50;;;1.17;;
3726;SDS011;1879;45.876;12.300;2022-08-02T07:27:32;2.23;;;1.20;;
3726;SDS011;1879;45.876;12.300;2022-08-02T07:29:59;1.97;;;1.30;;
3726;SDS011;1879;45.876;12.300;2022-08-02T07:32:28;2.07;;;1.70;;
3726;SDS011;1879;45.876;12.300;2022-08-02T07:34:56;1.60;;;1.50;;
3726;SDS011;1879;45.876;12.300;2022-08-02T07:37:25;11.60;;;1.60;;
3726;SDS011;1879;45.876;12.300;2022-08-02T07:39:54;1.53;;;1.40;;
3726;SDS011;1879;45.876;12.300;2022-08-02T07:42:21;1.90;;;1.40;;
3726;SDS011;1879;45.876;12.300;2022-08-02T07:44:48;1.47;;;1.37;;
3726;SDS011;1879;45.876;12.300;2022-08-02T07:47:15;1.57;;;1.10;;
3726;SDS011;1879;45.876;12.300;2022-08-02T07:49:42;1.30;;;1.20;;
3726;SDS011;1879;45.876;12.300;2022-08-02T07:52:09;2.03;;;1.50;;
3726;SDS011;1879;45.876;12.300;2022-08-02T07:54:37;5.63;;;1.53;;
3726;SDS011;1879;45.876;12.300;2022-08-02T07:57:04;1.70;;;1.30;;
3726;SDS011;1879;45.876;12.300;2022-08-02T07:59:31;2.80;;;1.40;;
3726;SDS011;1879;45.876;12.300;2022-08-02T08:01:58;1.63;;;1.10;;
3726;SDS011;1879;45.876;12.300;2022-08-02T08:04:25;1.40;;;1.23;;
3726;SDS011;1879;45.876;12.300;2022-08-02T08:06:52;1.90;;;1.17;;
3726;SDS011;1879;45.876;12.300;2022-08-02T08:09:19;1.60;;;1.50;;
3726;SDS011;1879;45.876;12.300;2022-08-02T08:11:48;1.80;;;1.20;;
3726;SDS011;1879;45.876;12.300;2022-08-02T08:14:15;1.20;;;1.00;;
3726;SDS011;1879;45.876;12.300;2022-08-02T08:16:42;1.50;;;1.30;;
3726;SDS011;1879;45.876;12.300;2022-08-02T08:19:11;1.50;;;1.30;;
3726;SDS011;1879;45.876;12.300;2022-08-02T08:21:37;1.30;;;1.20;;
3726;SDS011;1879;45.876;12.300;2022-08-02T08:24:05;1.30;;;1.00;;
3726;SDS011;1879;45.876;12.300;2022-08-02T08:26:32;1.73;;;1.20;;
3726;SDS011;1879;45.876;12.300;2022-08-02T08:29:00;1.50;;;1.40;;
3726;SDS011;1879;45.876;12.300;2022-08-02T08:31:30;2.37;;;1.10;;
3726;SDS011;1879;45.876;12.300;2022-08-02T08:33:57;4.80;;;1.37;;
3726;SDS011;1879;45.876;12.300;2022-08-02T08:36:24;1.50;;;1.30;;
3726;SDS011;1879;45.876;12.300;2022-08-02T08:38:51;2.80;;;1.40;;
3726;SDS011;1879;45.876;12.300;2022-08-02T08:41:18;1.20;;;1.10;;
3726;SDS011;1879;45.876;12.300;2022-08-02T08:43:46;1.30;;;1.20;;
3726;SDS011;1879;45.876;12.300;2022-08-02T08:46:18;1.30;;;0.87;;
3726;SDS011;1879;45.876;12.300;2022-08-02T08:48:52;1.90;;;1.10;;
3726;SDS011;1879;45.876;12.300;2022-08-02T08:51:24;1.30;;;1.20;;
3726;SDS011;1879;45.876;12.300;2022-08-02T08:53:55;1.73;;;0.90;;
3726;SDS011;1879;45.876;12.300;2022-08-02T08:56:28;1.67;;;1.00;;
3726;SDS011;1879;45.876;12.300;2022-08-02T08:58:57;1.60;;;1.10;;
3726;SDS011;1879;45.876;12.300;2022-08-02T09:01:26;3.27;;;1.00;;
3726;SDS011;1879;45.876;12.300;2022-08-02T09:03:53;3.67;;;1.10;;
3726;SDS011;1879;45.876;12.300;2022-08-02T09:06:21;1.23;;;0.80;;
3726;SDS011;1879;45.876;12.300;2022-08-02T09:08:48;1.00;;;0.90;;
3726;SDS011;1879;45.876;12.300;2022-08-02T09:11:15;1.73;;;1.13;;
3726;SDS011;1879;45.876;12.300;2022-08-02T09:13:49;1.83;;;1.10;;
3726;SDS011;1879;45.876;12.300;2022-08-02T09:16:32;2.03;;;1.20;;
3726;SDS011;1879;45.876;12.300;2022-08-02T09:19:01;1.67;;;1.20;;
3726;SDS011;1879;45.876;12.300;2022-08-02T09:21:44;2.30;;;1.30;;
3726;SDS011;1879;45.876;12.300;2022-08-02T09:24:15;1.23;;;1.03;;
3726;SDS011;1879;45.876;12.300;2022-08-02T09:26:43;1.53;;;1.00;;
3726;SDS011;1879;45.876;12.300;2022-08-02T09:29:11;2.70;;;1.47;;
3726;SDS011;1879;45.876;12.300;2022-08-02T09:31:40;1.77;;;1.00;;
3726;SDS011;1879;45.876;12.300;2022-08-02T09:34:07;1.80;;;1.30;;
3726;SDS011;1879;45.876;12.300;2022-08-02T09:36:38;1.60;;;1.10;;
3726;SDS011;1879;45.876;12.300;2022-08-02T09:39:07;1.50;;;1.30;;
3726;SDS011;1879;45.876;12.300;2022-08-02T09:41:35;1.30;;;1.10;;
3726;SDS011;1879;45.876;12.300;2022-08-02T09:44:05;1.30;;;1.10;;
3726;SDS011;1879;45.876;12.300;2022-08-02T09:46:35;1.40;;;0.97;;
3726;SDS011;1879;45.876;12.300;2022-08-02T09:49:05;1.87;;;1.57;;
3726;SDS011;1879;45.876;12.300;2022-08-02T09:51:34;1.27;;;1.10;;
3726;SDS011;1879;45.876;12.300;2022-08-02T09:54:03;3.40;;;1.00;;
3726;SDS011;1879;45.876;12.300;2022-08-02T09:56:44;1.73;;;1.13;;
3726;SDS011;1879;45.876;12.300;2022-08-02T09:59:12;1.37;;;1.27;;
3726;SDS011;1879;45.876;12.300;2022-08-02T10:01:40;1.40;;;1.30;;
3726;SDS011;1879;45.876;12.300;2022-08-02T10:04:10;1.30;;;0.90;;
3726;SDS011;1879;45.876;12.300;2022-08-02T10:06:39;1.00;;;0.90;;
3726;SDS011;1879;45.876;12.300;2022-08-02T10:09:08;1.20;;;1.10;;
3726;SDS011;1879;45.876;12.300;2022-08-02T10:11:36;1.10;;;1.00;;
3726;SDS011;1879;45.876;12.300;2022-08-02T10:14:05;1.47;;;1.17;;
3726;SDS011;1879;45.876;12.300;2022-08-02T10:16:34;1.10;;;0.90;;
3726;SDS011;1879;45.876;12.300;2022-08-02T10:19:02;1.03;;;0.93;;
3726;SDS011;1879;45.876;12.300;2022-08-02T10:21:32;1.00;;;0.90;;
3726;SDS011;1879;45.876;12.300;2022-08-02T10:24:06;1.10;;;1.00;;
3726;SDS011;1879;45.876;12.300;2022-08-02T10:26:35;1.43;;;0.90;;
3726;SDS011;1879;45.876;12.300;2022-08-02T10:29:05;1.07;;;0.83;;
3726;SDS011;1879;45.876;12.300;2022-08-02T10:31:36;1.40;;;1.00;;
3726;SDS011;1879;45.876;12.300;2022-08-02T10:34:08;2.13;;;1.13;;
3726;SDS011;1879;45.876;12.300;2022-08-02T10:36:38;1.50;;;0.83;;
3726;SDS011;1879;45.876;12.300;2022-08-02T10:39:07;1.10;;;0.90;;
3726;SDS011;1879;45.876;12.300;2022-08-02T10:41:38;1.57;;;1.40;;
3726;SDS011;1879;45.876;12.300;2022-08-02T10:44:07;2.60;;;0.90;;
3726;SDS011;1879;45.876;12.300;2022-08-02T10:46:35;1.00;;;0.90;;
3726;SDS011;1879;45.876;12.300;2022-08-02T10:49:03;1.13;;;1.00;;
3726;SDS011;1879;45.876;12.300;2022-08-02T10:51:57;1.57;;;0.97;;
3726;SDS011;1879;45.876;12.300;2022-08-02T10:54:32;3.10;;;1.00;;
3726;SDS011;1879;45.876;12.300;2022-08-02T10:57:13;1.10;;;1.00;;
3726;SDS011;1879;45.876;12.300;2022-08-02T10:59:41;1.10;;;1.00;;
3726;SDS011;1879;45.876;12.300;2022-08-02T11:02:09;3.77;;;1.40;;
3726;SDS011;1879;45.876;12.300;2022-08-02T11:07:31;1.00;;;0.90;;
3726;SDS011;1879;45.876;12.300;2022-08-02T11:13:06;1.30;;;1.20;;
3726;SDS011;1879;45.876;12.300;2022-08-02T11:21:29;1.20;;;0.90;;
3726;SDS011;1879;45.876;12.300;2022-08-02T11:26:53;1.00;;;0.90;;
3726;SDS011;1879;45.876;12.300;2022-08-02T11:29:21;1.63;;;1.17;;
3726;SDS011;1879;45.876;12.300;2022-08-02T11:31:58;1.00;;;0.90;;
3726;SDS011;1879;45.876;12.300;2022-08-02T11:34:25;1.70;;;1.23;;
3726;SDS011;1879;45.876;12.300;2022-08-02T11:36:55;1.37;;;1.10;;
3726;SDS011;1879;45.876;12.300;2022-08-02T11:39:22;2.20;;;1.40;;
3726;SDS011;1879;45.876;12.300;2022-08-02T11:41:51;3.70;;;1.00;;
3726;SDS011;1879;45.876;12.300;2022-08-02T11:44:22;1.37;;;1.27;;
3726;SDS011;1879;45.876;12.300;2022-08-02T11:46:53;0.90;;;0.80;;
3726;SDS011;1879;45.876;12.300;2022-08-02T11:49:21;0.90;;;0.80;;
3726;SDS011;1879;45.876;12.300;2022-08-02T11:51:56;1.07;;;0.97;;
3726;SDS011;1879;45.876;12.300;2022-08-02T11:54:27;1.10;;;1.00;;
3726;SDS011;1879;45.876;12.300;2022-08-02T11:57:08;0.97;;;0.87;;
3726;SDS011;1879;45.876;12.300;2022-08-02T11:59:40;1.07;;;0.93;;
3726;SDS011;1879;45.876;12.300;2022-08-02T12:02:08;1.00;;;0.90;;
3726;SDS011;1879;45.876;12.300;2022-08-02T12:04:35;1.23;;;1.13;;
3726;SDS011;1879;45.876;12.300;2022-08-02T12:07:05;1.30;;;1.00;;
3726;SDS011;1879;45.876;12.300;2022-08-02T12:09:33;1.10;;;1.00;;
3726;SDS011;1879;45.876;12.300;2022-08-02T12:12:01;1.47;;;0.80;;
3726;SDS011;1879;45.876;12.300;2022-08-02T12:14:31;1.17;;;1.07;;
3726;SDS011;1879;45.876;12.300;2022-08-02T12:17:06;0.77;;;0.73;;
3726;SDS011;1879;45.876;12.300;2022-08-02T12:19:50;1.77;;;0.73;;
3726;SDS011;1879;45.876;12.300;2022-08-02T12:22:18;2.40;;;0.83;;
3726;SDS011;1879;45.876;12.300;2022-08-02T12:24:50;1.33;;;1.00;;
3726;SDS011;1879;45.876;12.300;2022-08-02T12:27:28;0.93;;;0.83;;
3726;SDS011;1879;45.876;12.300;2022-08-02T12:30:02;1.30;;;0.93;;
3726;SDS011;1879;45.876;12.300;2022-08-02T12:32:32;0.80;;;0.77;;
3726;SDS011;1879;45.876;12.300;2022-08-02T12:35:07;1.07;;;0.97;;
3726;SDS011;1879;45.876;12.300;2022-08-02T12:37:36;1.90;;;0.87;;
3726;SDS011;1879;45.876;12.300;2022-08-02T12:40:20;4.67;;;1.27;;
3726;SDS011;1879;45.876;12.300;2022-08-02T12:42:49;1.43;;;1.10;;
3726;SDS011;1879;45.876;12.300;2022-08-02T12:45:18;0.90;;;0.90;;
3726;SDS011;1879;45.876;12.300;2022-08-02T12:47:46;1.73;;;1.13;;
3726;SDS011;1879;45.876;12.300;2022-08-02T12:50:16;1.40;;;0.87;;
3726;SDS011;1879;45.876;12.300;2022-08-02T12:52:45;1.60;;;1.40;;
3726;SDS011;1879;45.876;12.300;2022-08-02T12:55:16;1.00;;;0.90;;
3726;SDS011;1879;45.876;12.300;2022-08-02T12:57:51;0.90;;;0.90;;
3726;SDS011;1879;45.876;12.300;2022-08-02T13:00:24;1.20;;;1.10;;
3726;SDS011;1879;45.876;12.300;2022-08-02T13:02:53;1.00;;;0.67;;
3726;SDS011;1879;45.876;12.300;2022-08-02T13:05:20;1.17;;;0.80;;
3726;SDS011;1879;45.876;12.300;2022-08-02T13:07:47;0.93;;;0.83;;
3726;SDS011;1879;45.876;12.300;2022-08-02T13:10:14;0.93;;;0.77;;
3726;SDS011;1879;45.876;12.300;2022-08-02T13:12:41;0.80;;;0.80;;
3726;SDS011;1879;45.876;12.300;2022-08-02T13:15:09;1.10;;;1.00;;
3726;SDS011;1879;45.876;12.300;2022-08-02T13:17:38;1.03;;;0.93;;
3726;SDS011;1879;45.876;12.300;2022-08-02T13:20:05;0.87;;;0.87;;
3726;SDS011;1879;45.876;12.300;2022-08-02T13:22:33;0.80;;;0.80;;
3726;SDS011;1879;45.876;12.300;2022-08-02T13:25:01;1.20;;;1.10;;
3726;SDS011;1879;45.876;12.300;2022-08-02T13:27:29;1.10;;;1.00;;
3726;SDS011;1879;45.876;12.300;2022-08-02T13:29:58;1.20;;;1.10;;
3726;SDS011;1879;45.876;12.300;2022-08-02T13:32:26;1.00;;;0.90;;
3726;SDS011;1879;45.876;12.300;2022-08-02T13:34:55;1.30;;;1.17;;
3726;SDS011;1879;45.876;12.300;2022-08-02T13:37:23;1.17;;;1.07;;
3726;SDS011;1879;45.876;12.300;2022-08-02T13:39:50;1.70;;;1.00;;
3726;SDS011;1879;45.876;12.300;2022-08-02T13:42:18;1.37;;;1.00;;
3726;SDS011;1879;45.876;12.300;2022-08-02T13:44:45;0.97;;;0.90;;
3726;SDS011;1879;45.876;12.300;2022-08-02T13:47:12;0.90;;;0.83;;
3726;SDS011;1879;45.876;12.300;2022-08-02T13:49:39;0.80;;;0.80;;
3726;SDS011;1879;45.876;12.300;2022-08-02T13:52:08;1.20;;;1.00;;
3726;SDS011;1879;45.876;12.300;2022-08-02T13:54:35;0.77;;;0.73;;
3726;SDS011;1879;45.876;12.300;2022-08-02T13:57:02;1.07;;;0.80;;
3726;SDS011;1879;45.876;12.300;2022-08-02T13:59:29;0.90;;;0.70;;
3726;SDS011;1879;45.876;12.300;2022-08-02T14:01:56;1.10;;;1.00;;
3726;SDS011;1879;45.876;12.300;2022-08-02T14:04:24;0.80;;;0.80;;
3726;SDS011;1879;45.876;12.300;2022-08-02T14:06:51;1.00;;;0.90;;
3726;SDS011;1879;45.876;12.300;2022-08-02T14:09:22;1.00;;;0.83;;
3726;SDS011;1879;45.876;12.300;2022-08-02T14:11:49;1.00;;;0.87;;
3726;SDS011;1879;45.876;12.300;2022-08-02T14:14:17;1.37;;;0.83;;
3726;SDS011;1879;45.876;12.300;2022-08-02T14:16:44;0.70;;;0.70;;
3726;SDS011;1879;45.876;12.300;2022-08-02T14:19:11;0.80;;;0.80;;
3726;SDS011;1879;45.876;12.300;2022-08-02T14:21:38;0.70;;;0.70;;
3726;SDS011;1879;45.876;12.300;2022-08-02T14:24:05;0.70;;;0.70;;
3726;SDS011;1879;45.876;12.300;2022-08-02T14:26:34;0.80;;;0.80;;
3726;SDS011;1879;45.876;12.300;2022-08-02T14:29:02;0.90;;;0.87;;
3726;SDS011;1879;45.876;12.300;2022-08-02T14:31:29;1.00;;;0.87;;
3726;SDS011;1879;45.876;12.300;2022-08-02T14:33:56;0.70;;;0.60;;
3726;SDS011;1879;45.876;12.300;2022-08-02T14:36:23;0.70;;;0.70;;
3726;SDS011;1879;45.876;12.300;2022-08-02T14:38:50;0.83;;;0.70;;
3726;SDS011;1879;45.876;12.300;2022-08-02T14:41:17;0.80;;;0.80;;
3726;SDS011;1879;45.876;12.300;2022-08-02T14:43:45;0.60;;;0.60;;
3726;SDS011;1879;45.876;12.300;2022-08-02T14:46:32;0.87;;;0.87;;
3726;SDS011;1879;45.876;12.300;2022-08-02T14:49:00;1.30;;;0.90;;
3726;SDS011;1879;45.876;12.300;2022-08-02T14:51:28;1.43;;;1.00;;
3726;SDS011;1879;45.876;12.300;2022-08-02T14:53:56;2.03;;;0.93;;
3726;SDS011;1879;45.876;12.300;2022-08-02T14:56:23;2.00;;;0.83;;
3726;SDS011;1879;45.876;12.300;2022-08-02T14:58:52;1.77;;;0.90;;
3726;SDS011;1879;45.876;12.300;2022-08-02T15:01:19;2.00;;;1.07;;
3726;SDS011;1879;45.876;12.300;2022-08-02T15:03:46;7.93;;;2.30;;
3726;SDS011;1879;45.876;12.300;2022-08-02T15:06:13;2.47;;;1.40;;
3726;SDS011;1879;45.876;12.300;2022-08-02T15:08:40;1.60;;;1.07;;
3726;SDS011;1879;45.876;12.300;2022-08-02T15:11:08;2.83;;;1.13;;
3726;SDS011;1879;45.876;12.300;2022-08-02T15:13:35;3.17;;;0.80;;
3726;SDS011;1879;45.876;12.300;2022-08-02T15:16:03;2.00;;;0.80;;
3726;SDS011;1879;45.876;12.300;2022-08-02T15:18:31;1.50;;;1.00;;
3726;SDS011;1879;45.876;12.300;2022-08-02T15:20:58;0.80;;;0.80;;
3726;SDS011;1879;45.876;12.300;2022-08-02T15:23:25;1.20;;;1.10;;
3726;SDS011;1879;45.876;12.300;2022-08-02T15:25:52;0.80;;;0.80;;
3726;SDS011;1879;45.876;12.300;2022-08-02T15:28:19;0.97;;;0.87;;
3726;SDS011;1879;45.876;12.300;2022-08-02T15:30:46;1.03;;;0.97;;
3726;SDS011;1879;45.876;12.300;2022-08-02T15:33:15;0.73;;;0.70;;